sensor_id;sensor_type;location;lat;lon;timestamp;pressure;altitude;pressure_sealevel;temperature;humidity
18504;BME280;9381;54.244;10.074;2023-02-01T00:02:45;100321.94;;;5.67;100.00
18504;BME280;9381;54.244;10.074;2023-02-01T00:07:47;100309.19;;;5.75;100.00
18504;BME280;9381;54.244;10.074;2023-02-01T00:12:48;100317.34;;;5.88;100.00
18504;BME280;9381;54.244;10.074;2023-02-01T00:17:53;100308.50;;;5.94;100.00
18504;BME280;9381;54.244;10.074;2023-02-01T00:22:54;100302.50;;;5.92;100.00
18504;BME280;9381;54.244;10.074;2023-02-01T00:27:54;100313.56;;;6.10;100.00
18504;BME280;9381;54.244;10.074;2023-02-01T00:32:57;100297.28;;;6.12;100.00
18504;BME280;9381;54.244;10.074;2023-02-01T00:37:57;100304.72;;;6.16;100.00
18504;BME280;9381;54.244;10.074;2023-02-01T00:42:59;100297.53;;;6.23;100.00
18504;BME280;9381;54.244;10.074;2023-02-01T00:47:59;100291.00;;;6.39;100.00
18504;BME280;9381;54.244;10.074;2023-02-01T00:53:00;100275.88;;;6.38;100.00
18504;BME280;9381;54.244;10.074;2023-02-01T00:58:00;100284.16;;;6.36;100.00
18504;BME280;9381;54.244;10.074;2023-02-01T01:03:00;100279.41;;;6.38;100.00
18504;BME280;9381;54.244;10.074;2023-02-01T01:08:01;100268.94;;;6.56;100.00
18504;BME280;9381;54.244;10.074;2023-02-01T01:13:01;100302.19;;;6.49;100.00
18504;BME280;9381;54.244;10.074;2023-02-01T01:18:01;100271.81;;;6.55;100.00
18504;BME280;9381;54.244;10.074;2023-02-01T01:23:03;100276.78;;;6.51;100.00
18504;BME280;9381;54.244;10.074;2023-02-01T01:28:03;100271.22;;;6.59;100.00
18504;BME280;9381;54.244;10.074;2023-02-01T01:33:04;100269.22;;;6.81;100.00
18504;BME280;9381;54.244;10.074;2023-02-01T01:38:04;100272.25;;;6.58;100.00
18504;BME280;9381;54.244;10.074;2023-02-01T01:43:14;100274.59;;;6.74;100.00
18504;BME280;9381;54.244;10.074;2023-02-01T01:53:23;100259.69;;;6.78;100.00
18504;BME280;9381;54.244;10.074;2023-02-01T01:58:26;100254.34;;;6.85;100.00
18504;BME280;9381;54.244;10.074;2023-02-01T02:03:39;100263.84;;;6.81;100.00
18504;BME280;9381;54.244;10.074;2023-02-01T02:08:40;100251.44;;;6.73;100.00
18504;BME280;9381;54.244;10.074;2023-02-01T02:13:42;100246.22;;;6.59;100.00
18504;BME280;9381;54.244;10.074;2023-02-01T02:24:10;100240.91;;;6.85;100.00
18504;BME280;9381;54.244;10.074;2023-02-01T02:29:51;100233.84;;;6.77;100.00
18504;BME280;9381;54.244;10.074;2023-02-01T02:35:00;100224.78;;;6.85;100.00
18504;BME280;9381;54.244;10.074;2023-02-01T02:45:19;100229.75;;;6.94;100.00
18504;BME280;9381;54.244;10.074;2023-02-01T02:50:59;100213.00;;;6.92;100.00
18504;BME280;9381;54.244;10.074;2023-02-01T02:56:21;100213.38;;;6.70;100.00
18504;BME280;9381;54.244;10.074;2023-02-01T03:01:42;100199.94;;;6.76;100.00
18504;BME280;9381;54.244;10.074;2023-02-01T03:12:40;100190.88;;;6.97;100.00
18504;BME280;9381;54.244;10.074;2023-02-01T03:17:59;100172.25;;;6.95;100.00
18504;BME280;9381;54.244;10.074;2023-02-01T03:23:01;100156.13;;;6.89;100.00
18504;BME280;9381;54.244;10.074;2023-02-01T03:28:09;100156.75;;;6.97;100.00
18504;BME280;9381;54.244;10.074;2023-02-01T03:33:16;100161.09;;;6.85;100.00
18504;BME280;9381;54.244;10.074;2023-02-01T03:43:34;100158.00;;;7.01;100.00
18504;BME280;9381;54.244;10.074;2023-02-01T03:48:38;100173.91;;;6.96;100.00
18504;BME280;9381;54.244;10.074;2023-02-01T03:53:40;100151.16;;;6.60;100.00
18504;BME280;9381;54.244;10.074;2023-02-01T03:58:42;100165.84;;;6.90;100.00
18504;BME280;9381;54.244;10.074;2023-02-01T04:03:58;100151.16;;;6.53;100.00
18504;BME280;9381;54.244;10.074;2023-02-01T04:08:59;100144.09;;;6.33;100.00
18504;BME280;9381;54.244;10.074;2023-02-01T04:13:59;100149.00;;;6.16;100.00
18504;BME280;9381;54.244;10.074;2023-02-01T04:19:04;100147.28;;;5.96;100.00
18504;BME280;9381;54.244;10.074;2023-02-01T04:24:04;100126.09;;;5.73;100.00
18504;BME280;9381;54.244;10.074;2023-02-01T04:29:05;100107.63;;;5.91;100.00
18504;BME280;9381;54.244;10.074;2023-02-01T04:34:05;100100.63;;;5.97;100.00
18504;BME280;9381;54.244;10.074;2023-02-01T04:39:06;100108.72;;;5.69;100.00
18504;BME280;9381;54.244;10.074;2023-02-01T04:44:08;100108.34;;;5.72;100.00
18504;BME280;9381;54.244;10.074;2023-02-01T04:49:13;100095.91;;;5.65;100.00
18504;BME280;9381;54.244;10.074;2023-02-01T04:54:14;100086.88;;;5.72;100.00
18504;BME280;9381;54.244;10.074;2023-02-01T04:59:14;100105.84;;;5.64;100.00
18504;BME280;9381;54.244;10.074;2023-02-01T05:04:14;100098.84;;;5.76;100.00
18504;BME280;9381;54.244;10.074;2023-02-01T05:09:15;100096.13;;;5.63;100.00
18504;BME280;9381;54.244;10.074;2023-02-01T05:14:15;100105.88;;;5.77;100.00
18504;BME280;9381;54.244;10.074;2023-02-01T05:19:16;100093.13;;;5.79;100.00
18504;BME280;9381;54.244;10.074;2023-02-01T05:24:16;100085.25;;;5.78;100.00
18504;BME280;9381;54.244;10.074;2023-02-01T05:29:21;100092.31;;;5.85;100.00
18504;BME280;9381;54.244;10.074;2023-02-01T05:34:21;100105.13;;;5.83;100.00
18504;BME280;9381;54.244;10.074;2023-02-01T05:39:21;100102.63;;;5.88;100.00
18504;BME280;9381;54.244;10.074;2023-02-01T05:44:22;100092.31;;;5.85;100.00
18504;BME280;9381;54.244;10.074;2023-02-01T05:49:22;100092.31;;;5.85;100.00
18504;BME280;9381;54.244;10.074;2023-02-01T05:54:23;100088.22;;;5.89;100.00
18504;BME280;9381;54.244;10.074;2023-02-01T05:59:23;100095.50;;;6.08;100.00
18504;BME280;9381;54.244;10.074;2023-02-01T06:04:23;100084.72;;;5.95;100.00
18504;BME280;9381;54.244;10.074;2023-02-01T06:09:23;100084.25;;;5.85;100.00
18504;BME280;9381;54.244;10.074;2023-02-01T06:14:24;100088.41;;;5.94;100.00
18504;BME280;9381;54.244;10.074;2023-02-01T06:19:24;100088.84;;;5.98;100.00
18504;BME280;9381;54.244;10.074;2023-02-01T06:24:25;100077.41;;;5.76;100.00
18504;BME280;9381;54.244;10.074;2023-02-01T06:29:25;100075.72;;;5.69;100.00
18504;BME280;9381;54.244;10.074;2023-02-01T06:34:26;100067.97;;;5.80;100.00
18504;BME280;9381;54.244;10.074;2023-02-01T06:39:26;100074.00;;;5.55;100.00
18504;BME280;9381;54.244;10.074;2023-02-01T06:44:28;100078.59;;;5.67;100.00
18504;BME280;9381;54.244;10.074;2023-02-01T06:49:28;100080.41;;;5.60;100.00
18504;BME280;9381;54.244;10.074;2023-02-01T06:54:29;100075.72;;;5.63;100.00
18504;BME280;9381;54.244;10.074;2023-02-01T06:59:32;100078.28;;;5.83;100.00
18504;BME280;9381;54.244;10.074;2023-02-01T07:04:32;100083.59;;;5.70;100.00
18504;BME280;9381;54.244;10.074;2023-02-01T07:09:33;100075.41;;;5.91;100.00
18504;BME280;9381;54.244;10.074;2023-02-01T07:14:33;100079.94;;;5.97;100.00
18504;BME280;9381;54.244;10.074;2023-02-01T07:19:34;100082.06;;;6.08;100.00
18504;BME280;9381;54.244;10.074;2023-02-01T07:24:34;100083.09;;;6.07;100.00
18504;BME280;9381;54.244;10.074;2023-02-01T07:29:35;100087.44;;;6.21;100.00
18504;BME280;9381;54.244;10.074;2023-02-01T07:34:35;100087.03;;;6.11;100.00
18504;BME280;9381;54.244;10.074;2023-02-01T07:39:36;100091.81;;;6.35;100.00
18504;BME280;9381;54.244;10.074;2023-02-01T07:44:36;100091.59;;;6.37;100.00
18504;BME280;9381;54.244;10.074;2023-02-01T07:49:36;100093.28;;;6.44;100.00
18504;BME280;9381;54.244;10.074;2023-02-01T07:54:36;100098.03;;;6.75;100.00
18504;BME280;9381;54.244;10.074;2023-02-01T07:59:37;100115.00;;;6.62;100.00
18504;BME280;9381;54.244;10.074;2023-02-01T08:04:57;100114.75;;;6.96;100.00
18504;BME280;9381;54.244;10.074;2023-02-01T08:09:57;100111.25;;;6.76;100.00
18504;BME280;9381;54.244;10.074;2023-02-01T08:14:58;100100.31;;;6.65;100.00
18504;BME280;9381;54.244;10.074;2023-02-01T08:19:59;100114.16;;;6.49;100.00
18504;BME280;9381;54.244;10.074;2023-02-01T08:24:59;100116.84;;;6.55;100.00
18504;BME280;9381;54.244;10.074;2023-02-01T08:30:04;100112.28;;;6.43;100.00
18504;BME280;9381;54.244;10.074;2023-02-01T08:35:04;100108.75;;;6.29;100.00
18504;BME280;9381;54.244;10.074;2023-02-01T08:40:05;100120.53;;;6.48;100.00
18504;BME280;9381;54.244;10.074;2023-02-01T08:45:07;100123.03;;;6.49;100.00
18504;BME280;9381;54.244;10.074;2023-02-01T08:50:10;100107.53;;;6.64;100.00
18504;BME280;9381;54.244;10.074;2023-02-01T08:55:11;100112.31;;;6.62;100.00
18504;BME280;9381;54.244;10.074;2023-02-01T09:00:14;100124.28;;;6.79;100.00
18504;BME280;9381;54.244;10.074;2023-02-01T09:05:15;100131.53;;;6.85;100.00
18504;BME280;9381;54.244;10.074;2023-02-01T09:10:19;100141.22;;;6.93;100.00
18504;BME280;9381;54.244;10.074;2023-02-01T09:15:19;100131.31;;;6.93;100.00
18504;BME280;9381;54.244;10.074;2023-02-01T09:20:19;100111.03;;;7.10;100.00
18504;BME280;9381;54.244;10.074;2023-02-01T09:25:24;100103.97;;;7.35;100.00
18504;BME280;9381;54.244;10.074;2023-02-01T09:30:24;100103.75;;;7.30;100.00
18504;BME280;9381;54.244;10.074;2023-02-01T09:35:25;100109.09;;;7.50;100.00
18504;BME280;9381;54.244;10.074;2023-02-01T09:40:25;100110.59;;;7.33;100.00
18504;BME280;9381;54.244;10.074;2023-02-01T09:45:34;100117.97;;;7.50;100.00
18504;BME280;9381;54.244;10.074;2023-02-01T09:50:41;100098.34;;;7.50;100.00
18504;BME280;9381;54.244;10.074;2023-02-01T09:55:51;100092.72;;;7.51;100.00
18504;BME280;9381;54.244;10.074;2023-02-01T10:00:56;100090.38;;;7.74;100.00
18504;BME280;9381;54.244;10.074;2023-02-01T10:11:22;100077.13;;;8.10;98.27
18504;BME280;9381;54.244;10.074;2023-02-01T10:17:00;100078.72;;;8.18;98.17
18504;BME280;9381;54.244;10.074;2023-02-01T10:22:09;100073.88;;;8.39;97.51
18504;BME280;9381;54.244;10.074;2023-02-01T10:27:31;100067.22;;;8.04;99.80
18504;BME280;9381;54.244;10.074;2023-02-01T10:32:34;100079.03;;;8.03;99.41
18504;BME280;9381;54.244;10.074;2023-02-01T10:37:35;100052.28;;;8.08;99.57
18504;BME280;9381;54.244;10.074;2023-02-01T10:42:35;100041.66;;;8.51;97.57
18504;BME280;9381;54.244;10.074;2023-02-01T10:47:35;100042.00;;;8.30;95.83
18504;BME280;9381;54.244;10.074;2023-02-01T10:52:44;100039.16;;;8.18;96.32
18504;BME280;9381;54.244;10.074;2023-02-01T10:57:56;100036.66;;;7.92;96.57
18504;BME280;9381;54.244;10.074;2023-02-01T11:02:56;100029.41;;;7.86;96.86
18504;BME280;9381;54.244;10.074;2023-02-01T11:07:57;100019.34;;;8.06;98.25
18504;BME280;9381;54.244;10.074;2023-02-01T11:13:02;100009.38;;;7.82;99.35
18504;BME280;9381;54.244;10.074;2023-02-01T11:18:18;100000.66;;;7.87;99.57
18504;BME280;9381;54.244;10.074;2023-02-01T11:23:23;99998.09;;;7.92;100.00
18504;BME280;9381;54.244;10.074;2023-02-01T11:28:35;99993.00;;;8.15;100.00
18504;BME280;9381;54.244;10.074;2023-02-01T11:33:46;99988.41;;;8.15;100.00
18504;BME280;9381;54.244;10.074;2023-02-01T11:39:08;99981.88;;;8.05;99.35
18504;BME280;9381;54.244;10.074;2023-02-01T11:44:20;99973.41;;;8.01;100.00
18504;BME280;9381;54.244;10.074;2023-02-01T11:49:25;99944.41;;;8.28;99.57
18504;BME280;9381;54.244;10.074;2023-02-01T12:05:46;99953.19;;;7.92;100.00
18504;BME280;9381;54.244;10.074;2023-02-01T12:11:12;99959.44;;;8.11;100.00
18504;BME280;9381;54.244;10.074;2023-02-01T12:16:19;99997.28;;;7.54;100.00
18504;BME280;9381;54.244;10.074;2023-02-01T12:27:04;99953.59;;;7.14;100.00
18504;BME280;9381;54.244;10.074;2023-02-01T12:32:17;99942.22;;;7.19;100.00
18504;BME280;9381;54.244;10.074;2023-02-01T12:37:44;99936.53;;;6.96;100.00
18504;BME280;9381;54.244;10.074;2023-02-01T12:43:46;99932.03;;;6.83;100.00
18504;BME280;9381;54.244;10.074;2023-02-01T12:49:05;99938.22;;;6.90;100.00
18504;BME280;9381;54.244;10.074;2023-02-01T12:59:31;99950.16;;;6.94;100.00
18504;BME280;9381;54.244;10.074;2023-02-01T13:04:36;99964.00;;;7.04;100.00
18504;BME280;9381;54.244;10.074;2023-02-01T13:09:51;99950.25;;;7.32;100.00
18504;BME280;9381;54.244;10.074;2023-02-01T13:15:20;99948.84;;;7.16;100.00
18504;BME280;9381;54.244;10.074;2023-02-01T13:20:28;99953.53;;;7.34;100.00
18504;BME280;9381;54.244;10.074;2023-02-01T13:25:48;99949.31;;;8.06;100.00
18504;BME280;9381;54.244;10.074;2023-02-01T13:36:28;99954.66;;;8.19;98.68
18504;BME280;9381;54.244;10.074;2023-02-01T13:42:02;99960.28;;;8.11;97.94
18504;BME280;9381;54.244;10.074;2023-02-01T13:47:13;99963.69;;;8.00;97.27
18504;BME280;9381;54.244;10.074;2023-02-01T13:52:29;99965.22;;;7.52;97.69
18504;BME280;9381;54.244;10.074;2023-02-01T13:57:36;99955.66;;;7.63;97.28
18504;BME280;9381;54.244;10.074;2023-02-01T14:13:12;99982.06;;;7.79;95.18
18504;BME280;9381;54.244;10.074;2023-02-01T14:23:48;99970.66;;;7.39;96.33
18504;BME280;9381;54.244;10.074;2023-02-01T14:34:22;99991.03;;;7.22;98.82
18504;BME280;9381;54.244;10.074;2023-02-01T14:44:46;99978.53;;;7.41;98.71
18504;BME280;9381;54.244;10.074;2023-02-01T14:54:56;99995.44;;;7.54;100.00
18504;BME280;9381;54.244;10.074;2023-02-01T15:00:10;100014.75;;;7.38;100.00
18504;BME280;9381;54.244;10.074;2023-02-01T15:05:32;100020.00;;;7.20;100.00
18504;BME280;9381;54.244;10.074;2023-02-01T15:10:42;100015.41;;;7.34;100.00
18504;BME280;9381;54.244;10.074;2023-02-01T15:15:43;100028.91;;;7.14;100.00
18504;BME280;9381;54.244;10.074;2023-02-01T15:20:56;100028.25;;;7.19;100.00
18504;BME280;9381;54.244;10.074;2023-02-01T15:25:56;100030.81;;;6.94;100.00
18504;BME280;9381;54.244;10.074;2023-02-01T15:30:59;100029.09;;;7.19;100.00
18504;BME280;9381;54.244;10.074;2023-02-01T15:41:12;100034.03;;;7.35;100.00
18504;BME280;9381;54.244;10.074;2023-02-01T15:46:16;100043.44;;;7.57;98.60
18504;BME280;9381;54.244;10.074;2023-02-01T15:51:21;100027.28;;;7.57;97.22
18504;BME280;9381;54.244;10.074;2023-02-01T15:56:27;100030.84;;;7.51;96.39
18504;BME280;9381;54.244;10.074;2023-02-01T16:01:29;100033.72;;;7.56;96.32
18504;BME280;9381;54.244;10.074;2023-02-01T16:06:30;100023.44;;;7.40;95.60
18504;BME280;9381;54.244;10.074;2023-02-01T16:11:39;100018.63;;;7.55;95.87
18504;BME280;9381;54.244;10.074;2023-02-01T16:16:40;100033.59;;;7.38;95.56
18504;BME280;9381;54.244;10.074;2023-02-01T16:21:41;100028.66;;;7.35;95.01
18504;BME280;9381;54.244;10.074;2023-02-01T16:26:41;100025.69;;;7.50;95.04
18504;BME280;9381;54.244;10.074;2023-02-01T16:31:41;100030.25;;;7.43;93.65
18504;BME280;9381;54.244;10.074;2023-02-01T16:36:43;100055.88;;;7.52;92.76
18504;BME280;9381;54.244;10.074;2023-02-01T16:41:44;100070.78;;;7.54;93.23
18504;BME280;9381;54.244;10.074;2023-02-01T16:46:46;100070.72;;;7.67;93.11
18504;BME280;9381;54.244;10.074;2023-02-01T16:51:49;100067.59;;;7.70;92.60
18504;BME280;9381;54.244;10.074;2023-02-01T16:56:52;100065.31;;;7.74;91.69
18504;BME280;9381;54.244;10.074;2023-02-01T17:01:54;100074.78;;;7.83;91.54
18504;BME280;9381;54.244;10.074;2023-02-01T17:06:54;100065.69;;;7.77;90.93
18504;BME280;9381;54.244;10.074;2023-02-01T17:11:55;100067.59;;;7.70;90.68
18504;BME280;9381;54.244;10.074;2023-02-01T17:16:55;100067.41;;;7.65;90.88
18504;BME280;9381;54.244;10.074;2023-02-01T17:21:56;100066.41;;;7.60;91.52
18504;BME280;9381;54.244;10.074;2023-02-01T17:26:58;100087.72;;;7.61;91.62
18504;BME280;9381;54.244;10.074;2023-02-01T17:31:59;100082.75;;;7.58;92.33
18504;BME280;9381;54.244;10.074;2023-02-01T17:37:00;100103.06;;;7.54;95.76
18504;BME280;9381;54.244;10.074;2023-02-01T17:42:01;100082.19;;;7.43;96.67
18504;BME280;9381;54.244;10.074;2023-02-01T17:47:02;100084.50;;;7.33;96.67
18504;BME280;9381;54.244;10.074;2023-02-01T17:52:02;100087.84;;;7.22;95.53
18504;BME280;9381;54.244;10.074;2023-02-01T17:57:10;100091.34;;;7.16;94.95
18504;BME280;9381;54.244;10.074;2023-02-01T18:02:21;100074.66;;;7.01;94.55
18504;BME280;9381;54.244;10.074;2023-02-01T18:07:22;100065.50;;;7.28;94.12
18504;BME280;9381;54.244;10.074;2023-02-01T18:12:23;100053.06;;;7.34;93.34
18504;BME280;9381;54.244;10.074;2023-02-01T18:17:25;100067.13;;;7.29;92.68
18504;BME280;9381;54.244;10.074;2023-02-01T18:22:25;100076.25;;;7.28;92.72
18504;BME280;9381;54.244;10.074;2023-02-01T18:27:26;100070.00;;;7.34;93.37
18504;BME280;9381;54.244;10.074;2023-02-01T18:32:28;100066.97;;;7.18;93.47
18504;BME280;9381;54.244;10.074;2023-02-01T18:37:28;100060.13;;;7.15;93.55
18504;BME280;9381;54.244;10.074;2023-02-01T18:42:28;100072.19;;;6.93;92.53
18504;BME280;9381;54.244;10.074;2023-02-01T18:47:28;100063.69;;;6.96;92.64
18504;BME280;9381;54.244;10.074;2023-02-01T18:52:29;100080.66;;;6.97;92.76
18504;BME280;9381;54.244;10.074;2023-02-01T18:57:29;100060.59;;;6.99;91.90
18504;BME280;9381;54.244;10.074;2023-02-01T19:02:30;100050.66;;;6.93;92.68
18504;BME280;9381;54.244;10.074;2023-02-01T19:07:31;100059.19;;;6.64;93.21
18504;BME280;9381;54.244;10.074;2023-02-01T19:12:31;100049.25;;;6.71;93.07
18504;BME280;9381;54.244;10.074;2023-02-01T19:17:33;100053.59;;;6.66;93.52
18504;BME280;9381;54.244;10.074;2023-02-01T19:22:34;100048.22;;;6.46;94.78
18504;BME280;9381;54.244;10.074;2023-02-01T19:27:34;100054.84;;;6.63;95.43
18504;BME280;9381;54.244;10.074;2023-02-01T19:32:35;100049.47;;;6.50;96.46
18504;BME280;9381;54.244;10.074;2023-02-01T19:37:35;100065.34;;;6.32;97.14
18504;BME280;9381;54.244;10.074;2023-02-01T19:42:36;100031.47;;;6.38;96.82
18504;BME280;9381;54.244;10.074;2023-02-01T19:47:36;100053.41;;;6.54;96.54
18504;BME280;9381;54.244;10.074;2023-02-01T19:52:37;100042.00;;;6.72;96.06
18504;BME280;9381;54.244;10.074;2023-02-01T19:57:37;100033.53;;;6.81;95.53
18504;BME280;9381;54.244;10.074;2023-02-01T20:02:38;100054.00;;;6.82;95.27
18504;BME280;9381;54.244;10.074;2023-02-01T20:07:39;100046.91;;;7.07;95.02
18504;BME280;9381;54.244;10.074;2023-02-01T20:12:39;100052.53;;;6.93;96.32
18504;BME280;9381;54.244;10.074;2023-02-01T20:17:40;100048.59;;;7.08;95.64
18504;BME280;9381;54.244;10.074;2023-02-01T20:22:40;100050.66;;;7.13;95.88
18504;BME280;9381;54.244;10.074;2023-02-01T20:27:41;100066.34;;;7.16;96.76
18504;BME280;9381;54.244;10.074;2023-02-01T20:32:41;100056.88;;;7.00;97.43
18504;BME280;9381;54.244;10.074;2023-02-01T20:37:42;100055.13;;;7.25;96.88
18504;BME280;9381;54.244;10.074;2023-02-01T20:42:42;100063.63;;;7.35;96.88
18504;BME280;9381;54.244;10.074;2023-02-01T20:47:50;100075.75;;;7.51;95.86
18504;BME280;9381;54.244;10.074;2023-02-01T20:52:51;100100.63;;;7.46;95.24
18504;BME280;9381;54.244;10.074;2023-02-01T20:57:52;100082.38;;;7.48;97.84
18504;BME280;9381;54.244;10.074;2023-02-01T21:02:55;100090.69;;;7.40;98.62
18504;BME280;9381;54.244;10.074;2023-02-01T21:07:55;100105.16;;;7.46;98.65
18504;BME280;9381;54.244;10.074;2023-02-01T21:12:56;100120.03;;;7.55;99.02
18504;BME280;9381;54.244;10.074;2023-02-01T21:17:56;100119.25;;;7.41;99.17
18504;BME280;9381;54.244;10.074;2023-02-01T21:22:58;100121.69;;;7.56;98.75
18504;BME280;9381;54.244;10.074;2023-02-01T21:28:00;100115.94;;;7.39;98.82
18504;BME280;9381;54.244;10.074;2023-02-01T21:33:00;100109.28;;;7.48;98.68
18504;BME280;9381;54.244;10.074;2023-02-01T21:38:01;100131.66;;;7.49;98.86
18504;BME280;9381;54.244;10.074;2023-02-01T21:43:01;100112.81;;;7.55;98.16
18504;BME280;9381;54.244;10.074;2023-02-01T21:48:01;100123.34;;;7.50;98.77
18504;BME280;9381;54.244;10.074;2023-02-01T21:53:02;100139.53;;;7.37;98.93
18504;BME280;9381;54.244;10.074;2023-02-01T21:58:04;100144.47;;;7.53;100.00
18504;BME280;9381;54.244;10.074;2023-02-01T22:03:12;100148.97;;;7.72;100.00
18504;BME280;9381;54.244;10.074;2023-02-01T22:08:13;100157.28;;;7.51;100.00
18504;BME280;9381;54.244;10.074;2023-02-01T22:13:13;100180.47;;;7.52;100.00
18504;BME280;9381;54.244;10.074;2023-02-01T22:18:13;100182.53;;;7.63;100.00
18504;BME280;9381;54.244;10.074;2023-02-01T22:23:15;100187.69;;;7.78;99.67
18504;BME280;9381;54.244;10.074;2023-02-01T22:28:15;100202.00;;;7.65;99.77
18504;BME280;9381;54.244;10.074;2023-02-01T22:33:15;100209.88;;;7.67;99.91
18504;BME280;9381;54.244;10.074;2023-02-01T22:38:16;100212.75;;;7.72;99.83
18504;BME280;9381;54.244;10.074;2023-02-01T22:43:16;100215.84;;;7.75;99.74
18504;BME280;9381;54.244;10.074;2023-02-01T22:48:17;100218.56;;;7.69;99.18
18504;BME280;9381;54.244;10.074;2023-02-01T22:53:17;100222.88;;;7.70;99.62
18504;BME280;9381;54.244;10.074;2023-02-01T22:58:19;100239.66;;;7.65;99.07
18504;BME280;9381;54.244;10.074;2023-02-01T23:03:19;100233.44;;;7.71;99.38
18504;BME280;9381;54.244;10.074;2023-02-01T23:08:19;100250.22;;;7.60;99.50
18504;BME280;9381;54.244;10.074;2023-02-01T23:13:20;100269.88;;;7.67;99.34
18504;BME280;9381;54.244;10.074;2023-02-01T23:18:20;100277.97;;;7.67;99.25
18504;BME280;9381;54.244;10.074;2023-02-01T23:23:20;100287.50;;;7.70;100.00
18504;BME280;9381;54.244;10.074;2023-02-01T23:28:21;100293.94;;;7.62;100.00
18504;BME280;9381;54.244;10.074;2023-02-01T23:33:23;100296.38;;;7.64;100.00
18504;BME280;9381;54.244;10.074;2023-02-01T23:38:24;100280.03;;;7.46;100.00
18504;BME280;9381;54.244;10.074;2023-02-01T23:43:25;100301.56;;;7.52;100.00
18504;BME280;9381;54.244;10.074;2023-02-01T23:48:46;100325.16;;;7.50;100.00
18504;BME280;9381;54.244;10.074;2023-02-01T23:53:47;100324.53;;;7.55;99.83
18504;BME280;9381;54.244;10.074;2023-02-01T23:58:47;100333.25;;;7.50;99.76
